Rives, MO (63875)

09:28 CDT le 30 août 2014 (GMT -0500)
KC0UFP WX | Change Station
CLOSE
Current Station
Stations météorologiques personnelles
Location: Kennett, MO
Altitude: 262 ft
Stations météo à proximité

Alt. 262 ft 36.21 °N, 90.07 °W | Updated 54 seconds ago

Partiellement nuageux
Partiellement nuageux
77.9 ° F
Paraît 80 ° F
N
3.7
Vent Variable Vent de SSO

Aujourd'hui
Haut(e) -- | Bas -- ° F
--% Risque de précip.
Hier
Haut(e) -- | Bas -- ° F
Precip. -- pouce
6:30 AM 7:30 PM
Lune montante, 22% visible
Pression 30.02 pouce
Visibilité 10.0 Miles terrestres
Nuages Ciel dégagé
indice de chaleur 80 ° F
Point de rosée 76 ° F
Humidité 95%
Précipitations 0.00 pouce
Profondeur de la couche neigeuse Non disponible.
UV 3 sur 12
Pollen 3.20 sur 12
Qualité de l'air Non disponible.
Flu Activity Non disponible.
METAR KHKA 301353Z AUTO 20008KT 10SM CLR 26/23 A3003 RMK AO2 SLP164 T02610233

More Conditions Fewer Conditions

Pression 30.02 pouce
Visibilité 10.0 Miles terrestres
Nuages Ciel dégagé
indice de chaleur 80 ° F
Point de rosée 76 ° F
Humidité 95%
Précipitations 0.00 pouce
Profondeur de la couche neigeuse Non disponible.
UV 3 sur 12
Pollen 3.20 sur 12
Qualité de l'air Non disponible.
Flu Activity Non disponible.
METAR KHKA 301353Z AUTO 20008KT 10SM CLR 26/23 A3003 RMK AO2 SLP164 T02610233

More Conditions Fewer Conditions

10-Day Weather Forecast

Almanac

Astronomie

Aug. 30, 2014 Lever Coucher
Temps réel 06:30 CDT 19:30 CDT
Crépuscule civil 06:03 CDT 19:56 CDT
Crépuscule nautique 05:32 CDT 20:27 CDT
Crépuscule astronomique 05:00 CDT 21:00 CDT
Lune 11:07 CDT 22:15 CDT
Durée de lumière visible 13h 52m
Longueur du jour
13h 00m
Tomorrow will be 2m 11s shorter.
Lune montante, 22% of the Moon is Illuminated
Aujourd'hui
Lune montante
Sep 2
Premier quartier
Sep 8
Pleine lune
Sep 15
Dernier quartier
Sep 24
Nouveau

Extrêmes aujourd'hui

State Highs State Lows

Community

WunderPhotos

Upload Photos

1,748,519 Photos téléchargées !

WunderBlogs® & News

By Dr. Jeff Masters
Director of Meteorology, Weather Underground
By Kari Strenfel
Meteorologist, Weather Underground
By Christopher C. Burt
Weather Historian, Weather Underground
August 30, 2014
August 30, 2014
August 30, 2014

Nearby

Épaisseur de neige

Station Depth Altitude
Pas de nouvelles chutes de neige

Activité sismique

Ville Distance Mag. Time & Date
No recent earthquake activity has been reported nearby.
Minimum magnitude displayed is 2.5.

Températures des eaux côtières

Lieu Température
Aucun rapport de station

Stations météo à proximité